createdAt,value
2022-08-21T00:01:53.162Z,19.40
2022-08-21T00:06:08.686Z,19.40
2022-08-21T00:10:28.095Z,19.30
2022-08-21T00:14:42.689Z,19.30
2022-08-21T00:18:56.558Z,19.40
2022-08-21T00:23:11.778Z,19.30
2022-08-21T00:27:25.547Z,19.30
2022-08-21T00:31:39.445Z,19.20
2022-08-21T00:35:53.405Z,19.20
2022-08-21T00:40:11.607Z,19.20
2022-08-21T00:44:25.669Z,19.20
2022-08-21T00:48:39.445Z,19.20
2022-08-21T00:52:54.270Z,19.20
2022-08-21T00:57:15.049Z,19.20
2022-08-21T01:01:30.648Z,19.20
2022-08-21T01:05:46.614Z,19.10
2022-08-21T01:10:01.165Z,19.10
2022-08-21T01:14:19.420Z,19.20
2022-08-21T01:18:33.339Z,19.20
2022-08-21T01:22:48.635Z,19.20
2022-08-21T01:27:03.209Z,19.20
2022-08-21T01:31:24.801Z,19.20
2022-08-21T01:35:40.820Z,19.30
2022-08-21T01:39:56.156Z,19.30
2022-08-21T01:44:10.178Z,19.30
2022-08-21T01:48:24.718Z,19.30
2022-08-21T01:52:39.553Z,19.30
2022-08-21T01:56:56.329Z,19.20
2022-08-21T02:01:11.251Z,19.20
2022-08-21T02:05:25.158Z,19.10
2022-08-21T02:09:40.217Z,19.10
2022-08-21T02:13:55.466Z,19.10
2022-08-21T02:18:09.392Z,19.10
2022-08-21T02:22:23.245Z,19.00
2022-08-21T02:26:37.171Z,19.00
2022-08-21T02:30:53.004Z,18.90
2022-08-21T02:35:08.217Z,18.90
2022-08-21T02:39:27.033Z,18.90
2022-08-21T02:43:41.422Z,18.90
2022-08-21T02:47:59.565Z,18.80
2022-08-21T02:52:13.748Z,18.80
2022-08-21T02:56:31.503Z,18.90
2022-08-21T03:00:45.850Z,18.80
2022-08-21T03:05:01.409Z,18.80
2022-08-21T03:09:15.280Z,18.70
2022-08-21T03:13:29.400Z,18.70
2022-08-21T03:17:43.288Z,18.60
2022-08-21T03:21:58.478Z,18.60
2022-08-21T03:26:13.844Z,18.60
2022-08-21T03:30:29.393Z,18.60
2022-08-21T03:34:43.214Z,18.50
2022-08-21T03:38:58.477Z,18.50
2022-08-21T03:43:12.700Z,18.50
2022-08-21T03:47:26.611Z,18.40
2022-08-21T03:51:40.802Z,18.40
2022-08-21T03:55:55.972Z,18.40
2022-08-21T04:00:12.965Z,18.30
2022-08-21T04:04:28.805Z,18.40
2022-08-21T04:08:44.016Z,18.40
2022-08-21T04:13:00.186Z,18.40
2022-08-21T04:17:14.393Z,18.50
2022-08-21T04:21:28.166Z,18.40
2022-08-21T04:25:42.622Z,18.40
2022-08-21T04:29:58.367Z,18.30
2022-08-21T04:34:12.502Z,18.30
2022-08-21T04:38:36.444Z,18.40
2022-08-21T04:42:52.724Z,18.40
2022-08-21T04:47:08.129Z,18.40
2022-08-21T04:51:26.270Z,18.40
2022-08-21T04:55:42.722Z,18.50
2022-08-21T04:59:56.834Z,18.60
2022-08-21T05:04:14.744Z,18.60
2022-08-21T05:08:30.438Z,18.70
2022-08-21T05:12:45.951Z,18.80
2022-08-21T05:16:59.782Z,18.90
2022-08-21T05:21:15.166Z,18.90
2022-08-21T05:25:29.248Z,19.00
2022-08-21T05:29:44.166Z,19.00
2022-08-21T05:33:58.124Z,19.10
2022-08-21T05:38:17.615Z,19.20
2022-08-21T05:42:32.341Z,19.30
2022-08-21T05:46:46.126Z,19.40
2022-08-21T05:50:59.902Z,19.40
2022-08-21T05:55:15.071Z,19.50
2022-08-21T05:59:29.948Z,19.60
2022-08-21T06:03:44.883Z,19.80
2022-08-21T06:07:58.642Z,20.00
2022-08-21T06:12:14.784Z,20.20
2022-08-21T06:16:29.203Z,20.50
2022-08-21T06:20:43.419Z,20.80
2022-08-21T06:24:57.242Z,21.20
2022-08-21T06:29:17.407Z,21.60
2022-08-21T06:33:32.837Z,22.20
2022-08-21T06:37:46.763Z,22.90
2022-08-21T06:42:00.973Z,23.60
2022-08-21T06:46:17.439Z,24.20
2022-08-21T06:50:32.099Z,24.50
2022-08-21T06:54:46.378Z,24.60
2022-08-21T06:59:00.193Z,24.40
2022-08-21T07:03:22.849Z,24.10
2022-08-21T07:07:36.616Z,23.80
2022-08-21T07:11:53.524Z,23.70
2022-08-21T07:16:09.199Z,23.70
2022-08-21T07:20:24.423Z,23.80
2022-08-21T07:24:38.277Z,24.30
2022-08-21T07:28:52.507Z,25.10
2022-08-21T07:33:06.325Z,25.90
2022-08-21T07:37:21.498Z,26.80
2022-08-21T07:41:36.501Z,27.10
2022-08-21T07:45:51.344Z,27.10
2022-08-21T07:50:06.703Z,26.80
2022-08-21T07:54:33.386Z,26.40
2022-08-21T07:58:48.370Z,26.10
2022-08-21T08:03:03.403Z,25.90
2022-08-21T08:07:17.227Z,25.80
2022-08-21T08:11:32.630Z,25.80
2022-08-21T08:15:46.559Z,25.90
2022-08-21T08:20:01.758Z,26.20
2022-08-21T08:24:18.455Z,26.60
2022-08-21T08:28:35.749Z,26.90
2022-08-21T08:32:50.478Z,27.30
2022-08-21T08:37:04.645Z,27.50
2022-08-21T08:41:23.840Z,27.80
2022-08-21T08:45:49.984Z,28.10
2022-08-21T08:50:08.256Z,28.40
2022-08-21T08:54:32.385Z,29.00
2022-08-21T08:58:48.501Z,29.80
2022-08-21T09:03:05.262Z,30.70
2022-08-21T09:07:27.410Z,31.60
2022-08-21T09:11:48.357Z,32.30
2022-08-21T09:16:10.575Z,33.10
2022-08-21T09:20:35.662Z,33.40
2022-08-21T09:24:55.787Z,33.40
2022-08-21T09:29:12.258Z,33.80
2022-08-21T09:33:26.189Z,34.10
2022-08-21T09:37:52.705Z,34.20
2022-08-21T09:42:08.605Z,33.90
2022-08-21T09:46:24.788Z,33.20
2022-08-21T09:50:39.543Z,32.70
2022-08-21T09:54:57.091Z,32.50
2022-08-21T09:59:27.048Z,32.60
2022-08-21T10:03:41.004Z,32.30
2022-08-21T10:07:55.106Z,32.00
2022-08-21T10:12:18.099Z,32.20
2022-08-21T10:16:39.985Z,32.30
2022-08-21T10:21:00.698Z,32.50
2022-08-21T10:25:20.688Z,33.30
2022-08-21T10:29:48.717Z,34.20
2022-08-21T10:34:18.285Z,34.70
2022-08-21T10:39:07.337Z,34.80
2022-08-21T10:43:35.891Z,34.70
2022-08-21T10:47:58.040Z,34.50
2022-08-21T10:52:48.300Z,34.70
2022-08-21T11:02:43.883Z,35.30
2022-08-21T11:07:17.139Z,35.90
2022-08-21T11:11:37.124Z,37.00
2022-08-21T11:15:58.740Z,37.80
2022-08-21T11:20:17.992Z,38.20
2022-08-21T11:24:43.787Z,38.40
2022-08-21T11:29:03.965Z,38.50
2022-08-21T11:33:33.568Z,38.60
2022-08-21T11:38:03.932Z,38.70
2022-08-21T11:42:37.990Z,38.70
2022-08-21T11:47:00.712Z,38.70
2022-08-21T11:51:20.877Z,38.50
2022-08-21T11:55:41.869Z,38.30
2022-08-21T12:00:04.024Z,37.90
2022-08-21T12:04:30.870Z,37.10
2022-08-21T12:08:46.720Z,36.10
2022-08-21T12:13:12.362Z,35.00
2022-08-21T12:17:38.590Z,33.70
2022-08-21T12:21:56.689Z,32.40
2022-08-21T12:26:30.934Z,31.40
2022-08-21T12:30:47.381Z,30.60
2022-08-21T12:35:15.610Z,29.80
2022-08-21T12:39:45.234Z,29.30
2022-08-21T12:44:03.881Z,29.00
2022-08-21T12:48:24.816Z,28.80
2022-08-21T12:52:46.422Z,28.60
2022-08-21T12:57:02.146Z,28.50
2022-08-21T13:01:24.230Z,28.40
2022-08-21T13:05:39.454Z,28.40
2022-08-21T13:09:57.867Z,28.50
2022-08-21T13:14:19.941Z,28.40
2022-08-21T13:18:36.725Z,28.20
2022-08-21T13:22:50.836Z,27.80
2022-08-21T13:27:17.149Z,27.60
2022-08-21T13:31:43.191Z,27.40
2022-08-21T13:36:24.176Z,27.30
2022-08-21T13:41:07.159Z,27.30
2022-08-21T13:45:33.427Z,27.10
2022-08-21T13:49:49.811Z,27.00
2022-08-21T13:54:14.993Z,26.90
2022-08-21T13:58:31.675Z,26.90
2022-08-21T14:02:49.177Z,26.80
2022-08-21T14:07:03.980Z,26.80
2022-08-21T14:11:18.545Z,26.70
2022-08-21T14:15:36.593Z,26.60
2022-08-21T14:19:52.257Z,26.50
2022-08-21T14:24:09.617Z,26.50
2022-08-21T14:28:28.692Z,26.40
2022-08-21T14:32:54.864Z,26.50
2022-08-21T14:37:09.996Z,26.70
2022-08-21T14:41:26.628Z,26.70
2022-08-21T14:45:41.632Z,26.80
2022-08-21T14:49:55.579Z,26.80
2022-08-21T14:54:10.786Z,26.80
2022-08-21T14:58:25.559Z,26.70
2022-08-21T15:02:39.532Z,26.60
2022-08-21T15:06:53.399Z,26.40
2022-08-21T15:11:13.106Z,26.30
2022-08-21T15:15:29.606Z,26.20
2022-08-21T15:19:43.889Z,26.20
2022-08-21T15:23:57.673Z,26.20
2022-08-21T15:28:13.955Z,26.10
2022-08-21T15:32:31.163Z,26.00
2022-08-21T15:36:44.977Z,26.00
2022-08-21T15:40:59.229Z,25.90
2022-08-21T15:51:09.094Z,25.80
2022-08-21T15:55:43.103Z,25.90
2022-08-21T16:00:24.083Z,25.80
2022-08-21T16:04:58.101Z,25.80
2022-08-21T16:09:33.143Z,25.90
2022-08-21T16:14:07.080Z,25.80
2022-08-21T16:18:41.079Z,25.80
2022-08-21T16:23:15.127Z,25.70
2022-08-21T16:27:45.240Z,25.70
2022-08-21T16:32:20.084Z,25.60
2022-08-21T16:36:54.067Z,25.50
2022-08-21T16:41:32.058Z,25.50
2022-08-21T16:46:08.066Z,25.40
2022-08-21T16:50:51.031Z,25.40
2022-08-21T16:55:23.519Z,25.40
2022-08-21T16:59:57.057Z,25.30
2022-08-21T17:04:32.116Z,25.30
2022-08-21T17:09:08.061Z,25.20
2022-08-21T17:13:42.033Z,25.10
2022-08-21T17:18:10.193Z,25.00
2022-08-21T17:22:45.011Z,24.90
2022-08-21T17:27:20.054Z,24.80
2022-08-21T17:32:00.034Z,24.70
2022-08-21T17:36:35.045Z,24.60
2022-08-21T17:41:10.038Z,24.60
2022-08-21T17:45:44.109Z,24.60
2022-08-21T17:50:27.037Z,24.40
2022-08-21T17:55:00.008Z,24.30
2022-08-21T17:59:39.043Z,24.10
2022-08-21T18:04:13.701Z,23.90
2022-08-21T18:08:40.180Z,23.70
2022-08-21T18:13:18.001Z,23.50
2022-08-21T18:17:55.022Z,23.30
2022-08-21T18:22:28.020Z,23.10
2022-08-21T18:27:03.013Z,22.90
2022-08-21T18:31:31.164Z,22.80
2022-08-21T18:36:06.000Z,22.60
2022-08-21T18:40:41.992Z,22.50
2022-08-21T18:45:18.039Z,22.30
2022-08-21T18:49:51.558Z,22.20
2022-08-21T18:54:19.166Z,22.10
2022-08-21T18:58:52.980Z,22.00
2022-08-21T19:03:29.009Z,21.90
2022-08-21T19:08:03.004Z,21.80
2022-08-21T19:12:39.996Z,21.70
2022-08-21T19:17:06.961Z,21.70
2022-08-21T19:21:41.013Z,21.60
2022-08-21T19:26:15.962Z,21.50
2022-08-21T19:30:51.958Z,21.40
2022-08-21T19:35:25.968Z,21.30
2022-08-21T19:40:00.013Z,21.20
2022-08-21T19:44:31.014Z,21.10
2022-08-21T19:49:06.954Z,21.00
2022-08-21T19:53:41.955Z,20.90
2022-08-21T19:58:16.981Z,20.90
2022-08-21T20:02:55.933Z,20.70
2022-08-21T20:07:31.040Z,20.60
2022-08-21T20:12:10.590Z,20.60
2022-08-21T20:16:38.104Z,20.40
2022-08-21T20:21:16.989Z,20.30
2022-08-21T20:25:52.982Z,20.20
2022-08-21T20:30:25.915Z,20.00
2022-08-21T20:34:59.928Z,20.00
2022-08-21T20:39:32.973Z,19.90
2022-08-21T20:44:04.349Z,19.80
2022-08-21T20:48:48.955Z,19.80
2022-08-21T20:53:43.743Z,19.80
2022-08-21T20:58:22.947Z,19.70
2022-08-21T21:03:13.918Z,19.60
2022-08-21T21:07:58.905Z,19.50
2022-08-21T21:12:41.914Z,19.40
2022-08-21T21:17:28.503Z,19.40
2022-08-21T21:22:10.891Z,19.40
2022-08-21T21:26:44.665Z,19.40
2022-08-21T21:31:23.932Z,19.30
2022-08-21T21:36:02.042Z,19.30
2022-08-21T21:40:53.896Z,19.30
2022-08-21T21:45:36.350Z,19.20
2022-08-21T21:50:20.912Z,19.20
2022-08-21T21:55:09.867Z,19.10
2022-08-21T21:59:57.870Z,19.10
2022-08-21T22:04:51.169Z,19.00
2022-08-21T22:09:56.875Z,18.90
2022-08-21T22:14:31.902Z,18.80
2022-08-21T22:19:13.695Z,18.70
2022-08-21T22:23:51.879Z,18.60
2022-08-21T22:28:40.842Z,18.50
2022-08-21T22:33:19.955Z,18.40
2022-08-21T22:37:59.239Z,18.30
2022-08-21T22:42:33.874Z,18.30
2022-08-21T22:47:09.879Z,18.30
2022-08-21T22:51:51.097Z,18.20
2022-08-21T22:56:35.853Z,18.20
2022-08-21T23:01:13.819Z,18.20
2022-08-21T23:05:50.867Z,18.10
2022-08-21T23:10:32.846Z,18.10
2022-08-21T23:15:08.863Z,18.00
2022-08-21T23:19:57.831Z,17.90
2022-08-21T23:25:03.896Z,17.80
2022-08-21T23:29:48.832Z,17.80
2022-08-21T23:34:37.836Z,17.60
2022-08-21T23:39:25.810Z,17.60
2022-08-21T23:44:16.832Z,17.50
2022-08-21T23:48:59.820Z,17.50
2022-08-21T23:53:51.836Z,17.40
2022-08-21T23:58:36.781Z,17.30
